sensor_id;sensor_type;location;lat;lon;timestamp;temperature;humidity
39657;DHT22;25337;51.478;7.510;2024-03-02T00:00:20;7.30;99.90
39657;DHT22;25337;51.478;7.510;2024-03-02T00:02:47;7.40;99.90
39657;DHT22;25337;51.478;7.510;2024-03-02T00:05:16;7.40;99.90
39657;DHT22;25337;51.478;7.510;2024-03-02T00:07:42;7.40;99.90
39657;DHT22;25337;51.478;7.510;2024-03-02T00:10:09;7.50;99.90
39657;DHT22;25337;51.478;7.510;2024-03-02T00:12:36;7.40;99.90
39657;DHT22;25337;51.478;7.510;2024-03-02T00:17:55;7.50;99.90
39657;DHT22;25337;51.478;7.510;2024-03-02T00:20:24;7.50;99.90
39657;DHT22;25337;51.478;7.510;2024-03-02T00:22:55;7.50;99.90
39657;DHT22;25337;51.478;7.510;2024-03-02T00:25:23;7.50;99.90
39657;DHT22;25337;51.478;7.510;2024-03-02T00:27:49;7.50;99.90
39657;DHT22;25337;51.478;7.510;2024-03-02T00:33:04;7.40;99.90
39657;DHT22;25337;51.478;7.510;2024-03-02T00:35:32;7.40;99.90
39657;DHT22;25337;51.478;7.510;2024-03-02T00:37:58;7.50;99.90
39657;DHT22;25337;51.478;7.510;2024-03-02T00:40:29;7.40;99.90
39657;DHT22;25337;51.478;7.510;2024-03-02T00:42:56;7.40;99.90
39657;DHT22;25337;51.478;7.510;2024-03-02T00:45:21;7.40;99.90
39657;DHT22;25337;51.478;7.510;2024-03-02T00:47:47;7.40;99.90
39657;DHT22;25337;51.478;7.510;2024-03-02T00:50:13;7.30;99.90
39657;DHT22;25337;51.478;7.510;2024-03-02T00:52:40;7.40;99.90
39657;DHT22;25337;51.478;7.510;2024-03-02T00:55:07;7.40;99.90
39657;DHT22;25337;51.478;7.510;2024-03-02T00:57:34;7.40;99.90
39657;DHT22;25337;51.478;7.510;2024-03-02T01:00:00;7.40;99.90
39657;DHT22;25337;51.478;7.510;2024-03-02T01:02:26;7.40;99.90
39657;DHT22;25337;51.478;7.510;2024-03-02T01:04:52;7.40;99.90
39657;DHT22;25337;51.478;7.510;2024-03-02T01:07:17;7.40;99.90
39657;DHT22;25337;51.478;7.510;2024-03-02T01:09:43;7.50;99.90
39657;DHT22;25337;51.478;7.510;2024-03-02T01:12:09;7.50;99.90
39657;DHT22;25337;51.478;7.510;2024-03-02T01:14:34;7.60;99.90
39657;DHT22;25337;51.478;7.510;2024-03-02T01:17:00;7.60;99.90
39657;DHT22;25337;51.478;7.510;2024-03-02T01:19:29;7.70;99.90
39657;DHT22;25337;51.478;7.510;2024-03-02T01:21:56;7.70;99.90
39657;DHT22;25337;51.478;7.510;2024-03-02T01:24:22;7.70;99.90
39657;DHT22;25337;51.478;7.510;2024-03-02T01:26:47;7.70;99.90
39657;DHT22;25337;51.478;7.510;2024-03-02T01:29:13;7.70;99.90
39657;DHT22;25337;51.478;7.510;2024-03-02T01:31:39;7.60;99.90
39657;DHT22;25337;51.478;7.510;2024-03-02T01:34:07;7.70;99.90
39657;DHT22;25337;51.478;7.510;2024-03-02T01:36:33;7.60;99.90
39657;DHT22;25337;51.478;7.510;2024-03-02T01:38:58;7.70;99.90
39657;DHT22;25337;51.478;7.510;2024-03-02T01:41:24;7.60;99.90
39657;DHT22;25337;51.478;7.510;2024-03-02T01:43:50;7.60;99.90
39657;DHT22;25337;51.478;7.510;2024-03-02T01:46:16;7.70;99.90
39657;DHT22;25337;51.478;7.510;2024-03-02T01:48:41;7.70;99.90
39657;DHT22;25337;51.478;7.510;2024-03-02T01:51:07;7.80;99.90
39657;DHT22;25337;51.478;7.510;2024-03-02T01:53:33;7.80;99.90
39657;DHT22;25337;51.478;7.510;2024-03-02T01:55:59;7.90;99.90
39657;DHT22;25337;51.478;7.510;2024-03-02T01:58:24;7.90;99.90
39657;DHT22;25337;51.478;7.510;2024-03-02T02:00:50;7.90;99.90
39657;DHT22;25337;51.478;7.510;2024-03-02T02:03:16;7.80;99.90
39657;DHT22;25337;51.478;7.510;2024-03-02T02:05:44;7.90;99.90
39657;DHT22;25337;51.478;7.510;2024-03-02T02:08:11;7.90;99.90
39657;DHT22;25337;51.478;7.510;2024-03-02T02:10:36;7.90;99.90
39657;DHT22;25337;51.478;7.510;2024-03-02T02:13:02;8.00;99.90
39657;DHT22;25337;51.478;7.510;2024-03-02T02:15:31;8.00;99.90
39657;DHT22;25337;51.478;7.510;2024-03-02T02:17:58;8.00;99.90
39657;DHT22;25337;51.478;7.510;2024-03-02T02:20:25;8.00;99.90
39657;DHT22;25337;51.478;7.510;2024-03-02T02:23:08;8.00;99.90
39657;DHT22;25337;51.478;7.510;2024-03-02T02:25:35;8.00;99.90
39657;DHT22;25337;51.478;7.510;2024-03-02T02:28:01;8.00;99.90
39657;DHT22;25337;51.478;7.510;2024-03-02T02:30:30;7.90;99.90
39657;DHT22;25337;51.478;7.510;2024-03-02T02:32:56;7.90;99.90
39657;DHT22;25337;51.478;7.510;2024-03-02T02:35:22;7.90;99.90
39657;DHT22;25337;51.478;7.510;2024-03-02T02:37:50;7.90;99.90
39657;DHT22;25337;51.478;7.510;2024-03-02T02:40:17;7.90;99.90
39657;DHT22;25337;51.478;7.510;2024-03-02T02:42:46;7.80;99.90
39657;DHT22;25337;51.478;7.510;2024-03-02T02:45:12;7.80;99.90
39657;DHT22;25337;51.478;7.510;2024-03-02T02:47:40;7.80;99.90
39657;DHT22;25337;51.478;7.510;2024-03-02T02:50:09;7.80;99.90
39657;DHT22;25337;51.478;7.510;2024-03-02T02:52:36;7.80;99.90
39657;DHT22;25337;51.478;7.510;2024-03-02T02:55:04;7.90;99.90
39657;DHT22;25337;51.478;7.510;2024-03-02T02:57:32;7.80;99.90
39657;DHT22;25337;51.478;7.510;2024-03-02T03:00:02;7.80;99.90
39657;DHT22;25337;51.478;7.510;2024-03-02T03:02:30;7.80;99.90
39657;DHT22;25337;51.478;7.510;2024-03-02T03:04:56;7.80;99.90
39657;DHT22;25337;51.478;7.510;2024-03-02T03:07:23;7.70;99.90
39657;DHT22;25337;51.478;7.510;2024-03-02T03:09:48;7.70;99.90
39657;DHT22;25337;51.478;7.510;2024-03-02T03:12:14;7.60;99.90
39657;DHT22;25337;51.478;7.510;2024-03-02T03:14:42;7.60;99.90
39657;DHT22;25337;51.478;7.510;2024-03-02T03:17:08;7.60;99.90
39657;DHT22;25337;51.478;7.510;2024-03-02T03:19:34;7.60;99.90
39657;DHT22;25337;51.478;7.510;2024-03-02T03:21:59;7.60;99.90
39657;DHT22;25337;51.478;7.510;2024-03-02T03:24:25;7.50;99.90
39657;DHT22;25337;51.478;7.510;2024-03-02T03:26:51;7.60;99.90
39657;DHT22;25337;51.478;7.510;2024-03-02T03:29:16;7.60;99.90
39657;DHT22;25337;51.478;7.510;2024-03-02T03:31:42;7.50;99.90
39657;DHT22;25337;51.478;7.510;2024-03-02T03:34:07;7.50;99.90
39657;DHT22;25337;51.478;7.510;2024-03-02T03:36:33;7.50;99.90
39657;DHT22;25337;51.478;7.510;2024-03-02T03:38:59;7.50;99.90
39657;DHT22;25337;51.478;7.510;2024-03-02T03:41:24;7.50;99.90
39657;DHT22;25337;51.478;7.510;2024-03-02T03:43:50;7.50;99.90
39657;DHT22;25337;51.478;7.510;2024-03-02T03:46:15;7.50;99.90
39657;DHT22;25337;51.478;7.510;2024-03-02T03:48:41;7.50;99.90
39657;DHT22;25337;51.478;7.510;2024-03-02T03:51:07;7.40;99.90
39657;DHT22;25337;51.478;7.510;2024-03-02T03:53:33;7.40;99.90
39657;DHT22;25337;51.478;7.510;2024-03-02T03:55:58;7.40;99.90
39657;DHT22;25337;51.478;7.510;2024-03-02T03:58:24;7.40;99.90
39657;DHT22;25337;51.478;7.510;2024-03-02T04:00:49;7.50;99.90
39657;DHT22;25337;51.478;7.510;2024-03-02T04:03:15;7.40;99.90
39657;DHT22;25337;51.478;7.510;2024-03-02T04:05:40;7.50;99.90
39657;DHT22;25337;51.478;7.510;2024-03-02T04:08:06;7.50;99.90
39657;DHT22;25337;51.478;7.510;2024-03-02T04:10:32;7.50;99.90
39657;DHT22;25337;51.478;7.510;2024-03-02T04:12:59;7.60;99.90
39657;DHT22;25337;51.478;7.510;2024-03-02T04:15:25;7.60;99.90
39657;DHT22;25337;51.478;7.510;2024-03-02T04:17:50;7.70;99.90
39657;DHT22;25337;51.478;7.510;2024-03-02T04:20:16;7.70;99.90
39657;DHT22;25337;51.478;7.510;2024-03-02T04:22:41;7.70;99.90
39657;DHT22;25337;51.478;7.510;2024-03-02T04:25:07;7.70;99.90
39657;DHT22;25337;51.478;7.510;2024-03-02T04:27:33;7.60;99.90
39657;DHT22;25337;51.478;7.510;2024-03-02T04:29:59;7.50;99.90
39657;DHT22;25337;51.478;7.510;2024-03-02T04:32:28;7.50;99.90
39657;DHT22;25337;51.478;7.510;2024-03-02T04:34:54;7.50;99.90
39657;DHT22;25337;51.478;7.510;2024-03-02T04:37:20;7.50;99.90
39657;DHT22;25337;51.478;7.510;2024-03-02T04:39:45;7.50;99.90
39657;DHT22;25337;51.478;7.510;2024-03-02T04:42:11;7.60;99.90
39657;DHT22;25337;51.478;7.510;2024-03-02T04:44:36;7.60;99.90
39657;DHT22;25337;51.478;7.510;2024-03-02T04:47:04;7.60;99.90
39657;DHT22;25337;51.478;7.510;2024-03-02T04:49:30;7.60;99.90
39657;DHT22;25337;51.478;7.510;2024-03-02T04:51:55;7.60;99.90
39657;DHT22;25337;51.478;7.510;2024-03-02T04:54:22;7.60;99.90
39657;DHT22;25337;51.478;7.510;2024-03-02T04:56:48;7.60;99.90
39657;DHT22;25337;51.478;7.510;2024-03-02T04:59:19;7.50;99.90
39657;DHT22;25337;51.478;7.510;2024-03-02T05:01:45;7.50;99.90
39657;DHT22;25337;51.478;7.510;2024-03-02T05:04:12;7.50;99.90
39657;DHT22;25337;51.478;7.510;2024-03-02T05:06:39;7.50;99.90
39657;DHT22;25337;51.478;7.510;2024-03-02T05:09:09;7.50;99.90
39657;DHT22;25337;51.478;7.510;2024-03-02T05:11:35;7.50;99.90
39657;DHT22;25337;51.478;7.510;2024-03-02T05:14:06;7.50;99.90
39657;DHT22;25337;51.478;7.510;2024-03-02T05:16:35;7.40;99.90
39657;DHT22;25337;51.478;7.510;2024-03-02T05:19:02;7.40;99.90
39657;DHT22;25337;51.478;7.510;2024-03-02T05:21:27;7.30;99.90
39657;DHT22;25337;51.478;7.510;2024-03-02T05:23:53;7.30;99.90
39657;DHT22;25337;51.478;7.510;2024-03-02T05:26:18;7.30;99.90
39657;DHT22;25337;51.478;7.510;2024-03-02T05:28:44;7.30;99.90
39657;DHT22;25337;51.478;7.510;2024-03-02T05:31:15;7.20;99.90
39657;DHT22;25337;51.478;7.510;2024-03-02T05:33:42;7.10;99.90
39657;DHT22;25337;51.478;7.510;2024-03-02T05:36:07;7.10;99.90
39657;DHT22;25337;51.478;7.510;2024-03-02T05:38:36;7.10;99.90
39657;DHT22;25337;51.478;7.510;2024-03-02T05:41:02;7.10;99.90
39657;DHT22;25337;51.478;7.510;2024-03-02T05:43:27;7.10;99.90
39657;DHT22;25337;51.478;7.510;2024-03-02T05:45:54;7.10;99.90
39657;DHT22;25337;51.478;7.510;2024-03-02T05:48:19;7.00;99.90
39657;DHT22;25337;51.478;7.510;2024-03-02T05:50:45;7.10;99.90
39657;DHT22;25337;51.478;7.510;2024-03-02T05:53:10;7.20;99.90
39657;DHT22;25337;51.478;7.510;2024-03-02T05:55:36;7.10;99.90
39657;DHT22;25337;51.478;7.510;2024-03-02T05:58:02;7.10;99.90
39657;DHT22;25337;51.478;7.510;2024-03-02T06:00:46;7.00;99.90
39657;DHT22;25337;51.478;7.510;2024-03-02T06:03:11;7.00;99.90
39657;DHT22;25337;51.478;7.510;2024-03-02T06:05:37;6.90;99.90
39657;DHT22;25337;51.478;7.510;2024-03-02T06:08:03;6.90;99.90
39657;DHT22;25337;51.478;7.510;2024-03-02T06:10:28;6.80;99.90
39657;DHT22;25337;51.478;7.510;2024-03-02T06:12:54;6.90;99.90
39657;DHT22;25337;51.478;7.510;2024-03-02T06:15:20;6.90;99.90
39657;DHT22;25337;51.478;7.510;2024-03-02T06:17:45;7.00;99.90
39657;DHT22;25337;51.478;7.510;2024-03-02T06:20:11;6.90;99.90
39657;DHT22;25337;51.478;7.510;2024-03-02T06:22:37;6.80;99.90
39657;DHT22;25337;51.478;7.510;2024-03-02T06:25:02;6.90;99.90
39657;DHT22;25337;51.478;7.510;2024-03-02T06:27:28;6.80;99.90
39657;DHT22;25337;51.478;7.510;2024-03-02T06:29:54;6.80;99.90
39657;DHT22;25337;51.478;7.510;2024-03-02T06:32:20;6.80;99.90
39657;DHT22;25337;51.478;7.510;2024-03-02T06:34:45;6.80;99.90
39657;DHT22;25337;51.478;7.510;2024-03-02T06:37:11;6.90;99.90
39657;DHT22;25337;51.478;7.510;2024-03-02T06:39:37;6.80;99.90
39657;DHT22;25337;51.478;7.510;2024-03-02T06:42:02;6.90;99.90
39657;DHT22;25337;51.478;7.510;2024-03-02T06:44:28;6.80;99.90
39657;DHT22;25337;51.478;7.510;2024-03-02T06:46:54;6.80;99.90
39657;DHT22;25337;51.478;7.510;2024-03-02T06:49:19;6.70;99.90
39657;DHT22;25337;51.478;7.510;2024-03-02T06:51:45;6.80;99.90
39657;DHT22;25337;51.478;7.510;2024-03-02T06:54:10;6.80;99.90
39657;DHT22;25337;51.478;7.510;2024-03-02T06:56:36;6.80;99.90
39657;DHT22;25337;51.478;7.510;2024-03-02T06:59:03;6.80;99.90
39657;DHT22;25337;51.478;7.510;2024-03-02T07:01:28;6.90;99.90
39657;DHT22;25337;51.478;7.510;2024-03-02T07:03:54;7.00;99.90
39657;DHT22;25337;51.478;7.510;2024-03-02T07:06:19;6.80;99.90
39657;DHT22;25337;51.478;7.510;2024-03-02T07:08:45;7.00;99.90
39657;DHT22;25337;51.478;7.510;2024-03-02T07:11:11;7.00;99.90
39657;DHT22;25337;51.478;7.510;2024-03-02T07:13:36;6.90;99.90
39657;DHT22;25337;51.478;7.510;2024-03-02T07:16:02;7.00;99.90
39657;DHT22;25337;51.478;7.510;2024-03-02T07:18:28;7.00;99.90
39657;DHT22;25337;51.478;7.510;2024-03-02T07:20:53;7.00;99.90
39657;DHT22;25337;51.478;7.510;2024-03-02T07:23:20;7.10;99.90
39657;DHT22;25337;51.478;7.510;2024-03-02T07:25:49;7.20;99.90
39657;DHT22;25337;51.478;7.510;2024-03-02T07:28:15;7.20;99.90
39657;DHT22;25337;51.478;7.510;2024-03-02T07:30:41;7.40;99.90
39657;DHT22;25337;51.478;7.510;2024-03-02T07:33:07;7.40;99.90
39657;DHT22;25337;51.478;7.510;2024-03-02T07:35:32;7.60;99.90
39657;DHT22;25337;51.478;7.510;2024-03-02T07:37:58;7.60;99.90
39657;DHT22;25337;51.478;7.510;2024-03-02T07:40:24;7.70;99.90
39657;DHT22;25337;51.478;7.510;2024-03-02T07:42:50;7.80;99.90
39657;DHT22;25337;51.478;7.510;2024-03-02T07:45:16;7.80;99.90
39657;DHT22;25337;51.478;7.510;2024-03-02T07:47:41;7.90;99.90
39657;DHT22;25337;51.478;7.510;2024-03-02T07:50:07;8.00;99.90
39657;DHT22;25337;51.478;7.510;2024-03-02T07:52:33;8.10;99.90
39657;DHT22;25337;51.478;7.510;2024-03-02T07:54:59;8.10;99.90
39657;DHT22;25337;51.478;7.510;2024-03-02T07:57:25;8.10;99.90
39657;DHT22;25337;51.478;7.510;2024-03-02T07:59:51;8.20;99.90
39657;DHT22;25337;51.478;7.510;2024-03-02T08:02:16;8.40;99.90
39657;DHT22;25337;51.478;7.510;2024-03-02T08:04:42;8.40;99.90
39657;DHT22;25337;51.478;7.510;2024-03-02T08:07:08;8.50;99.90
39657;DHT22;25337;51.478;7.510;2024-03-02T08:09:34;8.50;99.90
39657;DHT22;25337;51.478;7.510;2024-03-02T08:12:00;8.60;99.90
39657;DHT22;25337;51.478;7.510;2024-03-02T08:14:26;8.60;99.90
39657;DHT22;25337;51.478;7.510;2024-03-02T08:16:51;8.70;99.90
39657;DHT22;25337;51.478;7.510;2024-03-02T08:19:17;8.60;99.90
39657;DHT22;25337;51.478;7.510;2024-03-02T08:21:43;8.70;99.90
39657;DHT22;25337;51.478;7.510;2024-03-02T08:24:09;8.80;99.90
39657;DHT22;25337;51.478;7.510;2024-03-02T08:26:34;8.80;99.90
39657;DHT22;25337;51.478;7.510;2024-03-02T08:29:01;8.90;99.90
39657;DHT22;25337;51.478;7.510;2024-03-02T08:31:30;9.00;99.90
39657;DHT22;25337;51.478;7.510;2024-03-02T08:33:56;9.10;99.90
39657;DHT22;25337;51.478;7.510;2024-03-02T08:36:22;9.10;99.90
39657;DHT22;25337;51.478;7.510;2024-03-02T08:38:49;9.20;99.90
39657;DHT22;25337;51.478;7.510;2024-03-02T08:41:15;9.30;99.90
39657;DHT22;25337;51.478;7.510;2024-03-02T08:43:42;9.40;99.90
39657;DHT22;25337;51.478;7.510;2024-03-02T08:46:08;9.50;99.90
39657;DHT22;25337;51.478;7.510;2024-03-02T08:48:34;9.80;99.90
39657;DHT22;25337;51.478;7.510;2024-03-02T08:50:59;10.10;99.90
39657;DHT22;25337;51.478;7.510;2024-03-02T08:53:25;10.30;99.90
39657;DHT22;25337;51.478;7.510;2024-03-02T08:55:50;10.40;99.90
39657;DHT22;25337;51.478;7.510;2024-03-02T08:58:16;10.60;99.90
39657;DHT22;25337;51.478;7.510;2024-03-02T09:00:42;10.80;99.90
39657;DHT22;25337;51.478;7.510;2024-03-02T09:03:07;11.00;99.90
39657;DHT22;25337;51.478;7.510;2024-03-02T09:05:33;11.20;99.90
39657;DHT22;25337;51.478;7.510;2024-03-02T09:07:59;11.60;99.90
39657;DHT22;25337;51.478;7.510;2024-03-02T09:10:24;11.90;99.90
39657;DHT22;25337;51.478;7.510;2024-03-02T09:12:50;11.50;99.90
39657;DHT22;25337;51.478;7.510;2024-03-02T09:15:16;11.50;99.90
39657;DHT22;25337;51.478;7.510;2024-03-02T09:17:41;11.70;99.90
39657;DHT22;25337;51.478;7.510;2024-03-02T09:20:07;11.90;99.90
39657;DHT22;25337;51.478;7.510;2024-03-02T09:22:33;12.10;99.50
39657;DHT22;25337;51.478;7.510;2024-03-02T09:24:58;12.20;99.40
39657;DHT22;25337;51.478;7.510;2024-03-02T09:27:24;12.40;99.10
39657;DHT22;25337;51.478;7.510;2024-03-02T09:29:50;12.50;99.00
39657;DHT22;25337;51.478;7.510;2024-03-02T09:32:16;12.70;98.50
39657;DHT22;25337;51.478;7.510;2024-03-02T09:34:41;12.80;98.10
39657;DHT22;25337;51.478;7.510;2024-03-02T09:37:07;13.20;97.50
39657;DHT22;25337;51.478;7.510;2024-03-02T09:39:33;13.50;96.40
39657;DHT22;25337;51.478;7.510;2024-03-02T09:42:02;13.60;95.50
39657;DHT22;25337;51.478;7.510;2024-03-02T09:44:30;13.60;94.80
39657;DHT22;25337;51.478;7.510;2024-03-02T09:46:55;13.60;95.10
39657;DHT22;25337;51.478;7.510;2024-03-02T09:49:22;13.80;94.80
39657;DHT22;25337;51.478;7.510;2024-03-02T09:51:48;14.00;94.30
39657;DHT22;25337;51.478;7.510;2024-03-02T09:54:16;14.10;94.60
39657;DHT22;25337;51.478;7.510;2024-03-02T09:56:43;14.30;93.40
39657;DHT22;25337;51.478;7.510;2024-03-02T09:59:09;14.30;93.00
39657;DHT22;25337;51.478;7.510;2024-03-02T10:01:35;14.30;92.70
39657;DHT22;25337;51.478;7.510;2024-03-02T10:04:01;14.60;91.70
39657;DHT22;25337;51.478;7.510;2024-03-02T10:06:30;15.00;90.80
39657;DHT22;25337;51.478;7.510;2024-03-02T10:08:56;15.30;89.40
39657;DHT22;25337;51.478;7.510;2024-03-02T10:11:29;15.50;89.40
39657;DHT22;25337;51.478;7.510;2024-03-02T10:16:37;15.40;87.90
39657;DHT22;25337;51.478;7.510;2024-03-02T10:19:22;15.30;87.60
39657;DHT22;25337;51.478;7.510;2024-03-02T10:21:49;15.30;87.90
39657;DHT22;25337;51.478;7.510;2024-03-02T10:24:15;15.30;86.90
39657;DHT22;25337;51.478;7.510;2024-03-02T10:26:41;15.10;87.90
39657;DHT22;25337;51.478;7.510;2024-03-02T10:29:09;15.00;87.20
39657;DHT22;25337;51.478;7.510;2024-03-02T10:31:40;14.60;89.50
39657;DHT22;25337;51.478;7.510;2024-03-02T10:34:07;14.80;88.00
39657;DHT22;25337;51.478;7.510;2024-03-02T10:36:37;15.20;86.20
39657;DHT22;25337;51.478;7.510;2024-03-02T10:39:07;15.40;85.50
39657;DHT22;25337;51.478;7.510;2024-03-02T10:41:35;15.70;85.50
39657;DHT22;25337;51.478;7.510;2024-03-02T10:44:05;16.20;81.70
39657;DHT22;25337;51.478;7.510;2024-03-02T10:46:33;16.20;81.70
39657;DHT22;25337;51.478;7.510;2024-03-02T10:48:59;16.10;80.30
39657;DHT22;25337;51.478;7.510;2024-03-02T10:51:27;16.20;79.90
39657;DHT22;25337;51.478;7.510;2024-03-02T10:53:54;16.70;80.90
39657;DHT22;25337;51.478;7.510;2024-03-02T10:56:34;17.10;77.60
39657;DHT22;25337;51.478;7.510;2024-03-02T10:59:06;16.90;77.40
39657;DHT22;25337;51.478;7.510;2024-03-02T11:01:38;17.00;79.30
39657;DHT22;25337;51.478;7.510;2024-03-02T11:04:04;17.50;74.50
39657;DHT22;25337;51.478;7.510;2024-03-02T11:06:35;17.70;73.50
39657;DHT22;25337;51.478;7.510;2024-03-02T11:09:06;17.50;72.10
39657;DHT22;25337;51.478;7.510;2024-03-02T11:11:37;17.60;72.60
39657;DHT22;25337;51.478;7.510;2024-03-02T11:14:04;17.90;70.10
39657;DHT22;25337;51.478;7.510;2024-03-02T11:16:37;17.50;72.40
39657;DHT22;25337;51.478;7.510;2024-03-02T11:19:05;17.10;72.40
39657;DHT22;25337;51.478;7.510;2024-03-02T11:21:33;16.70;73.70
39657;DHT22;25337;51.478;7.510;2024-03-02T11:23:59;16.70;74.10
39657;DHT22;25337;51.478;7.510;2024-03-02T11:26:25;16.60;74.20
39657;DHT22;25337;51.478;7.510;2024-03-02T11:28:51;16.80;73.80
39657;DHT22;25337;51.478;7.510;2024-03-02T11:31:17;17.30;72.00
39657;DHT22;25337;51.478;7.510;2024-03-02T11:33:42;17.70;73.10
39657;DHT22;25337;51.478;7.510;2024-03-02T11:36:09;18.60;70.70
39657;DHT22;25337;51.478;7.510;2024-03-02T11:38:35;19.10;68.00
39657;DHT22;25337;51.478;7.510;2024-03-02T11:41:03;19.50;65.90
39657;DHT22;25337;51.478;7.510;2024-03-02T11:43:32;19.60;68.10
39657;DHT22;25337;51.478;7.510;2024-03-02T11:46:03;19.90;65.50
39657;DHT22;25337;51.478;7.510;2024-03-02T11:48:32;19.90;65.80
39657;DHT22;25337;51.478;7.510;2024-03-02T11:51:00;20.00;64.00
39657;DHT22;25337;51.478;7.510;2024-03-02T11:53:27;19.50;64.70
39657;DHT22;25337;51.478;7.510;2024-03-02T11:55:58;19.00;67.10
39657;DHT22;25337;51.478;7.510;2024-03-02T11:58:24;19.20;67.30
39657;DHT22;25337;51.478;7.510;2024-03-02T12:00:55;19.80;66.50
39657;DHT22;25337;51.478;7.510;2024-03-02T12:03:22;20.60;64.60
39657;DHT22;25337;51.478;7.510;2024-03-02T12:05:55;21.20;60.80
39657;DHT22;25337;51.478;7.510;2024-03-02T12:08:21;21.30;62.60
39657;DHT22;25337;51.478;7.510;2024-03-02T12:11:01;21.30;59.60
39657;DHT22;25337;51.478;7.510;2024-03-02T12:13:27;21.10;60.50
39657;DHT22;25337;51.478;7.510;2024-03-02T12:15:54;20.90;60.50
39657;DHT22;25337;51.478;7.510;2024-03-02T12:18:22;21.00;62.40
39657;DHT22;25337;51.478;7.510;2024-03-02T12:20:49;22.00;60.40
39657;DHT22;25337;51.478;7.510;2024-03-02T12:23:18;22.70;58.40
39657;DHT22;25337;51.478;7.510;2024-03-02T12:25:44;22.60;57.10
39657;DHT22;25337;51.478;7.510;2024-03-02T12:28:09;22.80;56.20
39657;DHT22;25337;51.478;7.510;2024-03-02T12:30:35;21.80;56.00
39657;DHT22;25337;51.478;7.510;2024-03-02T12:33:01;20.40;60.00
39657;DHT22;25337;51.478;7.510;2024-03-02T12:35:27;19.80;62.20
39657;DHT22;25337;51.478;7.510;2024-03-02T12:37:53;20.10;61.00
39657;DHT22;25337;51.478;7.510;2024-03-02T12:40:20;20.50;60.10
39657;DHT22;25337;51.478;7.510;2024-03-02T12:42:48;20.20;60.70
39657;DHT22;25337;51.478;7.510;2024-03-02T12:45:14;19.70;61.50
39657;DHT22;25337;51.478;7.510;2024-03-02T12:47:41;19.50;62.80
39657;DHT22;25337;51.478;7.510;2024-03-02T12:50:08;19.30;63.00
39657;DHT22;25337;51.478;7.510;2024-03-02T12:52:34;19.00;63.90
39657;DHT22;25337;51.478;7.510;2024-03-02T12:55:00;19.00;63.70
39657;DHT22;25337;51.478;7.510;2024-03-02T12:57:29;19.00;64.50
39657;DHT22;25337;51.478;7.510;2024-03-02T13:00:02;19.50;63.80
39657;DHT22;25337;51.478;7.510;2024-03-02T13:02:35;19.50;62.60
39657;DHT22;25337;51.478;7.510;2024-03-02T13:05:01;19.10;63.60
39657;DHT22;25337;51.478;7.510;2024-03-02T13:07:27;18.80;64.80
39657;DHT22;25337;51.478;7.510;2024-03-02T13:09:55;18.50;64.70
39657;DHT22;25337;51.478;7.510;2024-03-02T13:12:22;18.20;66.90
39657;DHT22;25337;51.478;7.510;2024-03-02T13:14:49;17.90;65.90
39657;DHT22;25337;51.478;7.510;2024-03-02T13:17:17;17.30;66.60
39657;DHT22;25337;51.478;7.510;2024-03-02T13:19:59;16.70;69.50
39657;DHT22;25337;51.478;7.510;2024-03-02T13:22:25;16.20;70.30
39657;DHT22;25337;51.478;7.510;2024-03-02T13:24:52;16.00;70.80
39657;DHT22;25337;51.478;7.510;2024-03-02T13:27:18;16.00;72.20
39657;DHT22;25337;51.478;7.510;2024-03-02T13:29:47;15.90;72.50
39657;DHT22;25337;51.478;7.510;2024-03-02T13:32:14;15.80;73.80
39657;DHT22;25337;51.478;7.510;2024-03-02T13:34:39;15.80;73.60
39657;DHT22;25337;51.478;7.510;2024-03-02T13:37:05;15.70;73.00
39657;DHT22;25337;51.478;7.510;2024-03-02T13:39:31;15.50;73.40
39657;DHT22;25337;51.478;7.510;2024-03-02T13:41:58;15.40;75.80
39657;DHT22;25337;51.478;7.510;2024-03-02T13:44:30;15.40;76.30
39657;DHT22;25337;51.478;7.510;2024-03-02T13:46:56;15.50;75.30
39657;DHT22;25337;51.478;7.510;2024-03-02T13:49:22;15.50;76.10
39657;DHT22;25337;51.478;7.510;2024-03-02T13:51:48;15.50;76.30
39657;DHT22;25337;51.478;7.510;2024-03-02T13:54:14;15.40;75.20
39657;DHT22;25337;51.478;7.510;2024-03-02T13:56:40;15.30;76.90
39657;DHT22;25337;51.478;7.510;2024-03-02T13:59:07;15.30;76.40
39657;DHT22;25337;51.478;7.510;2024-03-02T14:01:33;15.30;76.90
39657;DHT22;25337;51.478;7.510;2024-03-02T14:03:59;15.20;78.10
39657;DHT22;25337;51.478;7.510;2024-03-02T14:06:24;15.20;77.50
39657;DHT22;25337;51.478;7.510;2024-03-02T14:08:52;15.10;77.30
39657;DHT22;25337;51.478;7.510;2024-03-02T14:11:18;15.00;79.30
39657;DHT22;25337;51.478;7.510;2024-03-02T14:13:45;15.10;78.30
39657;DHT22;25337;51.478;7.510;2024-03-02T14:16:19;15.10;77.50
39657;DHT22;25337;51.478;7.510;2024-03-02T14:18:45;15.10;76.30
39657;DHT22;25337;51.478;7.510;2024-03-02T14:21:10;15.00;77.00
39657;DHT22;25337;51.478;7.510;2024-03-02T14:23:36;14.90;78.90
39657;DHT22;25337;51.478;7.510;2024-03-02T14:26:02;14.90;79.90
39657;DHT22;25337;51.478;7.510;2024-03-02T14:28:27;14.80;79.20
39657;DHT22;25337;51.478;7.510;2024-03-02T14:30:53;14.90;79.50
39657;DHT22;25337;51.478;7.510;2024-03-02T14:33:20;14.90;80.80
39657;DHT22;25337;51.478;7.510;2024-03-02T14:35:46;14.90;81.40
39657;DHT22;25337;51.478;7.510;2024-03-02T14:38:12;14.90;81.30
39657;DHT22;25337;51.478;7.510;2024-03-02T14:40:38;14.80;81.20
39657;DHT22;25337;51.478;7.510;2024-03-02T14:43:04;14.80;81.70
39657;DHT22;25337;51.478;7.510;2024-03-02T14:45:29;14.80;82.00
39657;DHT22;25337;51.478;7.510;2024-03-02T14:47:56;14.80;82.00
39657;DHT22;25337;51.478;7.510;2024-03-02T14:50:27;14.90;82.30
39657;DHT22;25337;51.478;7.510;2024-03-02T14:52:53;14.90;82.20
39657;DHT22;25337;51.478;7.510;2024-03-02T14:55:19;15.00;82.60
39657;DHT22;25337;51.478;7.510;2024-03-02T14:57:45;14.90;82.20
39657;DHT22;25337;51.478;7.510;2024-03-02T15:00:11;14.90;83.20
39657;DHT22;25337;51.478;7.510;2024-03-02T15:02:37;14.90;82.50
39657;DHT22;25337;51.478;7.510;2024-03-02T15:05:03;14.80;83.90
39657;DHT22;25337;51.478;7.510;2024-03-02T15:07:31;14.80;82.80
39657;DHT22;25337;51.478;7.510;2024-03-02T15:09:57;14.70;84.40
39657;DHT22;25337;51.478;7.510;2024-03-02T15:12:22;14.70;85.50
39657;DHT22;25337;51.478;7.510;2024-03-02T15:14:48;14.70;84.20
39657;DHT22;25337;51.478;7.510;2024-03-02T15:17:14;14.70;84.60
39657;DHT22;25337;51.478;7.510;2024-03-02T15:19:44;14.60;84.30
39657;DHT22;25337;51.478;7.510;2024-03-02T15:22:10;14.50;85.60
39657;DHT22;25337;51.478;7.510;2024-03-02T15:24:35;14.50;86.60
39657;DHT22;25337;51.478;7.510;2024-03-02T15:27:01;14.40;86.90
39657;DHT22;25337;51.478;7.510;2024-03-02T15:29:31;14.40;87.10
39657;DHT22;25337;51.478;7.510;2024-03-02T15:31:57;14.50;88.20
39657;DHT22;25337;51.478;7.510;2024-03-02T15:34:23;14.60;88.20
39657;DHT22;25337;51.478;7.510;2024-03-02T15:36:49;14.60;87.60
39657;DHT22;25337;51.478;7.510;2024-03-02T15:39:15;14.50;85.70
39657;DHT22;25337;51.478;7.510;2024-03-02T15:41:40;14.50;86.60
39657;DHT22;25337;51.478;7.510;2024-03-02T15:44:07;14.50;86.10